RYR7DC EIDW-LOWW
Flight info
| Callsign | RYR7DC |
|---|---|
| Flight time | N/A |
| Altitude | 37000 |
| Route | ENDEQ3J ENDEQ Q36 ALAVA Z195 MALUD UL975 WAL M16 DOLAS L603 LAMSO DCT NOMKA DCT TALEG L620 PIKIB DCT OMELO DCT EVIKU DCT BITSI DCT MIKOV MIKOV8W |
| Aircraft | B738/M-SDE2E3FGHIRWXY/LB1 |
Departure
| Time | 2026-05-01 08:52 |
|---|---|
| Airport | Dublin Airport (EIDW) |
Arrival
| Time | N/A |
|---|---|
| Airport | Vienna International Airport (LOWW) |
| Time | Latitude | Longitude | Altitude | Speed | Heading |
|---|---|---|---|---|---|
| 2026-05-01 08:32 | 53.43097 | -6.24599 | 214 ft | 0 kts | 185° |
| 2026-05-01 08:46 | 53.43112 | -6.24597 | 219 ft | 3 kts | 183° |
| 2026-05-01 08:46 | 53.43134 | -6.24596 | 214 ft | 3 kts | 179° |
| 2026-05-01 08:46 | 53.43157 | -6.24598 | 210 ft | 3 kts | 172° |
| 2026-05-01 08:46 | 53.43178 | -6.24606 | 214 ft | 3 kts | 155° |
| 2026-05-01 08:47 | 53.43195 | -6.24625 | 212 ft | 3 kts | 110° |
| 2026-05-01 08:47 | 53.43197 | -6.24634 | 217 ft | 1 kts | 95° |
| 2026-05-01 08:49 | 53.43195 | -6.24604 | 218 ft | 7 kts | 95° |
| 2026-05-01 08:49 | 53.43190 | -6.24490 | 210 ft | 11 kts | 88° |
| 2026-05-01 08:49 | 53.43242 | -6.24415 | 210 ft | 11 kts | 7° |
| 2026-05-01 08:50 | 53.43315 | -6.24389 | 212 ft | 11 kts | 33° |
| 2026-05-01 08:50 | 53.43336 | -6.24279 | 210 ft | 10 kts | 95° |
| 2026-05-01 08:50 | 53.43330 | -6.24160 | 210 ft | 10 kts | 95° |
| 2026-05-01 08:50 | 53.43323 | -6.24044 | 210 ft | 10 kts | 95° |
| 2026-05-01 08:51 | 53.43318 | -6.23931 | 214 ft | 10 kts | 87° |
| 2026-05-01 08:51 | 53.43362 | -6.23864 | 210 ft | 9 kts | 10° |
| 2026-05-01 08:51 | 53.43428 | -6.23848 | 210 ft | 10 kts | 5° |
| 2026-05-01 08:51 | 53.43484 | -6.23896 | 209 ft | 10 kts | 281° |
| 2026-05-01 08:52 | 53.43506 | -6.24238 | 218 ft | 63 kts | 275° |
| 2026-05-01 08:52 | 53.43566 | -6.25352 | 212 ft | 129 kts | 275° |
| 2026-05-01 08:52 | 53.43668 | -6.27109 | 397 ft | 163 kts | 272° |
| 2026-05-01 08:52 | 53.43763 | -6.29012 | 1016 ft | 167 kts | 279° |
| 2026-05-01 08:53 | 53.44262 | -6.30783 | 1742 ft | 174 kts | 312° |
| 2026-05-01 08:53 | 53.44948 | -6.31521 | 2230 ft | 177 kts | 330° |
| 2026-05-01 08:53 | 53.45823 | -6.32914 | 2904 ft | 175 kts | 298° |
| 2026-05-01 08:53 | 53.46497 | -6.34647 | 3535 ft | 187 kts | 309° |
| 2026-05-01 08:54 | 53.47749 | -6.35648 | 3777 ft | 220 kts | 358° |
| 2026-05-01 08:54 | 53.49336 | -6.35436 | 4116 ft | 235 kts | 5° |
| 2026-05-01 08:54 | 53.50949 | -6.34897 | 4623 ft | 241 kts | 30° |
| 2026-05-01 08:54 | 53.52149 | -6.32988 | 5139 ft | 242 kts | 64° |
| 2026-05-01 08:55 | 53.52643 | -6.30212 | 5354 ft | 259 kts | 91° |
| 2026-05-01 08:55 | 53.52647 | -6.27123 | 5920 ft | 268 kts | 97° |
| 2026-05-01 08:55 | 53.52565 | -6.23966 | 6694 ft | 271 kts | 98° |
| 2026-05-01 08:55 | 53.52481 | -6.20790 | 7469 ft | 274 kts | 97° |
| 2026-05-01 08:56 | 53.52411 | -6.17567 | 8212 ft | 278 kts | 97° |
| 2026-05-01 08:56 | 53.52349 | -6.14301 | 8857 ft | 281 kts | 97° |
| 2026-05-01 08:56 | 53.52316 | -6.12446 | 9045 ft | 283 kts | 97° |
| 2026-05-01 08:56 | 53.52259 | -6.09167 | 9098 ft | 286 kts | 97° |
| 2026-05-01 08:57 | 53.52109 | -6.05868 | 9141 ft | 281 kts | 105° |
| 2026-05-01 08:57 | 53.51659 | -6.02647 | 9665 ft | 284 kts | 110° |
| 2026-05-01 08:57 | 53.51153 | -5.99448 | 10465 ft | 285 kts | 110° |
| 2026-05-01 08:57 | 53.50632 | -5.96120 | 10706 ft | 307 kts | 109° |
| 2026-05-01 08:58 | 53.50092 | -5.92527 | 10944 ft | 327 kts | 108° |
| 2026-05-01 08:58 | 53.49543 | -5.88770 | 11473 ft | 335 kts | 108° |
| 2026-05-01 08:58 | 53.48990 | -5.84948 | 12192 ft | 337 kts | 108° |
| 2026-05-01 08:58 | 53.48469 | -5.81094 | 12950 ft | 340 kts | 106° |
| 2026-05-01 08:59 | 53.47982 | -5.77168 | 13709 ft | 344 kts | 106° |
| 2026-05-01 08:59 | 53.47500 | -5.73217 | 14408 ft | 348 kts | 106° |
| 2026-05-01 08:59 | 53.47009 | -5.69208 | 15096 ft | 351 kts | 106° |
| 2026-05-01 08:59 | 53.46509 | -5.65165 | 15800 ft | 355 kts | 106° |
| 2026-05-01 09:00 | 53.46007 | -5.61150 | 16478 ft | 359 kts | 107° |
| 2026-05-01 09:00 | 53.45489 | -5.57033 | 17167 ft | 362 kts | 107° |
| 2026-05-01 09:00 | 53.44963 | -5.52882 | 17835 ft | 366 kts | 107° |
| 2026-05-01 09:00 | 53.44471 | -5.48652 | 18434 ft | 375 kts | 103° |
| 2026-05-01 09:01 | 53.44252 | -5.44167 | 18545 ft | 396 kts | 97° |
| 2026-05-01 09:01 | 53.44178 | -5.39442 | 18679 ft | 412 kts | 96° |
| 2026-05-01 09:01 | 53.44123 | -5.34575 | 18971 ft | 421 kts | 96° |
| 2026-05-01 09:01 | 53.44043 | -5.29647 | 19449 ft | 424 kts | 96° |
| 2026-05-01 09:02 | 53.43929 | -5.24700 | 20014 ft | 424 kts | 97° |
| 2026-05-01 09:02 | 53.43793 | -5.19750 | 20546 ft | 426 kts | 97° |
| 2026-05-01 09:02 | 53.43649 | -5.14831 | 20994 ft | 430 kts | 97° |
| 2026-05-01 09:02 | 53.43501 | -5.09794 | 21381 ft | 435 kts | 97° |
| 2026-05-01 09:03 | 53.43352 | -5.04715 | 21839 ft | 437 kts | 97° |
| 2026-05-01 09:03 | 53.43203 | -4.99610 | 22320 ft | 439 kts | 97° |
| 2026-05-01 09:03 | 53.43053 | -4.94471 | 22769 ft | 442 kts | 97° |
| 2026-05-01 09:03 | 53.42897 | -4.89306 | 23197 ft | 445 kts | 97° |
| 2026-05-01 09:04 | 53.42737 | -4.84121 | 23614 ft | 447 kts | 98° |
| 2026-05-01 09:04 | 53.42563 | -4.78876 | 23975 ft | 450 kts | 98° |
| 2026-05-01 09:04 | 53.42381 | -4.73635 | 24323 ft | 452 kts | 98° |
| 2026-05-01 09:04 | 53.42195 | -4.68359 | 24687 ft | 454 kts | 98° |
| 2026-05-01 09:05 | 53.42007 | -4.63063 | 25004 ft | 456 kts | 98° |
| 2026-05-01 09:05 | 53.41817 | -4.57739 | 25328 ft | 458 kts | 98° |
| 2026-05-01 09:05 | 53.41624 | -4.52398 | 25649 ft | 460 kts | 98° |
| 2026-05-01 09:05 | 53.41429 | -4.47031 | 25973 ft | 462 kts | 98° |
| 2026-05-01 09:06 | 53.41230 | -4.41643 | 26285 ft | 464 kts | 98° |
| 2026-05-01 09:06 | 53.41029 | -4.36238 | 26590 ft | 466 kts | 98° |
| 2026-05-01 09:06 | 53.40824 | -4.30791 | 26888 ft | 468 kts | 98° |
| 2026-05-01 09:06 | 53.40615 | -4.25328 | 27167 ft | 470 kts | 98° |
| 2026-05-01 09:07 | 53.40407 | -4.19927 | 27451 ft | 472 kts | 98° |
| 2026-05-01 09:07 | 53.40193 | -4.14438 | 27822 ft | 471 kts | 98° |
| 2026-05-01 09:07 | 53.39979 | -4.08969 | 28241 ft | 469 kts | 97° |
| 2026-05-01 09:07 | 53.39762 | -4.03527 | 28646 ft | 468 kts | 97° |
| 2026-05-01 09:08 | 53.39548 | -3.98070 | 29038 ft | 468 kts | 96° |
| 2026-05-01 09:08 | 53.39578 | -3.92596 | 29444 ft | 471 kts | 90° |
| 2026-05-01 09:08 | 53.39873 | -3.87120 | 29882 ft | 471 kts | 88° |
| 2026-05-01 09:08 | 53.40213 | -3.81660 | 30287 ft | 470 kts | 88° |
| 2026-05-01 09:09 | 53.40532 | -3.76286 | 30610 ft | 469 kts | 88° |
| 2026-05-01 09:09 | 53.40825 | -3.70774 | 30916 ft | 468 kts | 89° |
| 2026-05-01 09:09 | 53.41087 | -3.65410 | 31244 ft | 468 kts | 89° |
| 2026-05-01 09:09 | 53.41305 | -3.59991 | 31574 ft | 465 kts | 92° |
| 2026-05-01 09:10 | 53.41193 | -3.54584 | 31909 ft | 463 kts | 97° |
| 2026-05-01 09:10 | 53.40930 | -3.49218 | 32251 ft | 462 kts | 98° |
| 2026-05-01 09:10 | 53.40637 | -3.43855 | 32573 ft | 461 kts | 98° |
| 2026-05-01 09:10 | 53.40356 | -3.38493 | 32888 ft | 461 kts | 97° |
| 2026-05-01 09:11 | 53.40095 | -3.33128 | 33186 ft | 461 kts | 97° |
| 2026-05-01 09:11 | 53.39849 | -3.27767 | 33483 ft | 461 kts | 97° |
| 2026-05-01 09:11 | 53.39610 | -3.22405 | 33791 ft | 460 kts | 97° |
| 2026-05-01 09:11 | 53.39369 | -3.17054 | 34093 ft | 460 kts | 97° |
| 2026-05-01 09:12 | 53.39126 | -3.11712 | 34350 ft | 460 kts | 97° |
| 2026-05-01 09:12 | 53.38910 | -3.06367 | 34586 ft | 459 kts | 96° |
| 2026-05-01 09:12 | 53.38714 | -3.01034 | 34882 ft | 458 kts | 96° |
| 2026-05-01 09:12 | 53.38523 | -2.95718 | 35128 ft | 457 kts | 96° |
| 2026-05-01 09:13 | 53.38328 | -2.90401 | 35337 ft | 458 kts | 96° |
| 2026-05-01 09:13 | 53.38130 | -2.85143 | 35546 ft | 458 kts | 96° |
| 2026-05-01 09:13 | 53.37925 | -2.79810 | 35786 ft | 458 kts | 96° |
| 2026-05-01 09:13 | 53.37716 | -2.74493 | 36027 ft | 457 kts | 96° |
| 2026-05-01 09:14 | 53.37504 | -2.69181 | 36241 ft | 457 kts | 96° |
| 2026-05-01 09:14 | 53.37289 | -2.63872 | 36448 ft | 457 kts | 96° |
| 2026-05-01 09:14 | 53.37072 | -2.58565 | 36672 ft | 457 kts | 96° |
| 2026-05-01 09:14 | 53.36853 | -2.53253 | 36892 ft | 456 kts | 97° |
| 2026-05-01 09:15 | 53.36632 | -2.47951 | 37133 ft | 455 kts | 97° |
| 2026-05-01 09:15 | 53.36407 | -2.42640 | 37142 ft | 459 kts | 97° |
| 2026-05-01 09:15 | 53.35955 | -2.32038 | 37151 ft | 457 kts | 97° |
| 2026-05-01 09:16 | 53.35309 | -2.21491 | 37158 ft | 452 kts | 102° |
| 2026-05-01 09:17 | 53.33664 | -2.06094 | 37155 ft | 448 kts | 103° |
| 2026-05-01 09:17 | 53.32025 | -1.90709 | 37161 ft | 448 kts | 103° |
| 2026-05-01 09:18 | 53.30401 | -1.75296 | 37177 ft | 449 kts | 103° |
| 2026-05-01 09:19 | 53.28749 | -1.59834 | 37178 ft | 452 kts | 103° |
| 2026-05-01 09:20 | 53.27070 | -1.44304 | 37177 ft | 454 kts | 103° |
| 2026-05-01 09:21 | 53.24799 | -1.23570 | 37183 ft | 456 kts | 103° |
| 2026-05-01 09:21 | 53.23062 | -1.07938 | 37181 ft | 456 kts | 103° |
| 2026-05-01 09:22 | 53.20721 | -0.87162 | 37185 ft | 454 kts | 104° |
| 2026-05-01 09:23 | 53.18954 | -0.71709 | 37188 ft | 453 kts | 104° |
| 2026-05-01 09:24 | 53.17167 | -0.56243 | 37184 ft | 452 kts | 104° |
| 2026-05-01 09:25 | 53.14755 | -0.35649 | 37183 ft | 452 kts | 104° |
| 2026-05-01 09:26 | 53.12937 | -0.20332 | 37214 ft | 451 kts | 104° |
| 2026-05-01 09:26 | 53.11091 | -0.04967 | 37214 ft | 451 kts | 104° |
| 2026-05-01 09:27 | 53.09226 | 0.10384 | 37203 ft | 451 kts | 104° |
| 2026-05-01 09:28 | 53.07975 | 0.20588 | 37209 ft | 450 kts | 104° |
| 2026-05-01 09:28 | 53.06712 | 0.30806 | 37206 ft | 451 kts | 105° |
| 2026-05-01 09:29 | 53.04811 | 0.46045 | 37210 ft | 451 kts | 105° |
| 2026-05-01 09:30 | 53.02882 | 0.61343 | 37217 ft | 451 kts | 105° |
| 2026-05-01 09:30 | 53.00933 | 0.76627 | 37218 ft | 451 kts | 105° |
| 2026-05-01 09:31 | 52.99622 | 0.86818 | 37224 ft | 450 kts | 105° |
| 2026-05-01 09:32 | 52.97659 | 1.01998 | 37219 ft | 450 kts | 104° |
| 2026-05-01 09:32 | 52.95876 | 1.17341 | 37235 ft | 451 kts | 103° |
| 2026-05-01 09:33 | 52.94711 | 1.27523 | 37243 ft | 451 kts | 103° |
| 2026-05-01 09:34 | 52.92918 | 1.42821 | 37250 ft | 452 kts | 104° |
| 2026-05-01 09:34 | 52.91193 | 1.57291 | 37247 ft | 453 kts | 103° |
| 2026-05-01 09:35 | 52.89420 | 1.72002 | 37254 ft | 454 kts | 103° |
| 2026-05-01 09:36 | 52.88212 | 1.81939 | 37260 ft | 454 kts | 103° |
| 2026-05-01 09:36 | 52.86955 | 1.92206 | 37262 ft | 455 kts | 104° |
| 2026-05-01 09:37 | 52.85688 | 2.02472 | 37251 ft | 455 kts | 103° |
| 2026-05-01 09:37 | 52.83774 | 2.17835 | 37266 ft | 454 kts | 103° |
| 2026-05-01 09:38 | 52.81844 | 2.33163 | 37272 ft | 454 kts | 104° |
| 2026-05-01 09:39 | 52.79905 | 2.48405 | 37280 ft | 453 kts | 104° |
| 2026-05-01 09:39 | 52.78589 | 2.58609 | 37272 ft | 453 kts | 104° |
| 2026-05-01 09:40 | 52.76606 | 2.73850 | 37276 ft | 452 kts | 104° |
| 2026-05-01 09:41 | 52.75498 | 2.82304 | 37286 ft | 452 kts | 104° |
| 2026-05-01 09:41 | 52.73541 | 2.97537 | 37286 ft | 452 kts | 104° |
| 2026-05-01 09:42 | 52.72196 | 3.07661 | 37278 ft | 451 kts | 104° |
| 2026-05-01 09:43 | 52.69423 | 3.27804 | 37283 ft | 451 kts | 105° |
| 2026-05-01 09:43 | 52.68025 | 3.37867 | 37280 ft | 451 kts | 105° |
| 2026-05-01 09:44 | 52.65923 | 3.52953 | 37278 ft | 451 kts | 104° |
| 2026-05-01 09:45 | 52.64507 | 3.63024 | 37296 ft | 450 kts | 104° |
| 2026-05-01 09:45 | 52.62371 | 3.78098 | 37296 ft | 450 kts | 105° |
| 2026-05-01 09:46 | 52.60943 | 3.88087 | 37300 ft | 451 kts | 105° |
| 2026-05-01 09:46 | 52.59500 | 3.98130 | 37295 ft | 451 kts | 104° |
| 2026-05-01 09:47 | 52.58046 | 4.08176 | 37297 ft | 451 kts | 104° |
| 2026-05-01 09:47 | 52.56581 | 4.18209 | 37296 ft | 451 kts | 105° |
| 2026-05-01 09:48 | 52.55121 | 4.28173 | 37299 ft | 452 kts | 104° |
| 2026-05-01 09:48 | 52.53641 | 4.38209 | 37301 ft | 452 kts | 104° |
| 2026-05-01 09:49 | 52.52148 | 4.48257 | 37304 ft | 452 kts | 104° |
| 2026-05-01 09:49 | 52.50648 | 4.58297 | 37303 ft | 452 kts | 105° |
| 2026-05-01 09:50 | 52.49148 | 4.68255 | 37308 ft | 452 kts | 105° |